Flight Track Log - Related Links

Times and Time Zones

All times are in EDT time to prevent confusion due to time zone crossing. See the N1169Z flight status page for this flight to view local times or setup timezone preferences in your user account.

Time Position Orientation Groundspeed Altitude Reporting Facility
EDT Latitude Longitude Course Direction KTS MPH feet Rate Location/Type
Fri 07:24:35 PM 40.6458 -96.8919 16° North 97 112 3,200  Level Minneapolis Center
Fri 07:25:14 PM 40.6736 -96.9008 346° North 92 106 3,700 772 Climbing Minneapolis Center
Fri 07:26:16 PM 40.7008 -96.8906 16° North 99 114 4,500 677 Climbing Minneapolis Center
Fri 07:27:18 PM 40.7281 -96.8783 19° North 101 116 5,100 290 Climbing Minneapolis Center
Fri 07:28:20 PM 40.7717 -96.8617 16° North 117 135 5,100  Level Minneapolis Center
Fri 07:29:22 PM 40.8153 -96.8486 13° North 144 166 5,100  Level Minneapolis Center
Fri 07:30:24 PM 40.8583 -96.8306 18° North 157 181 5,100 -45 Level Minneapolis Center
Fri 07:31:34 PM 40.8981 -96.8033 27° Northeast 164 189 5,000  Descending Minneapolis Center
Fri 07:32:29 PM 40.9450 -96.7914 11° North 164 189 5,100  Climbing Minneapolis Center
Fri 07:33:31 PM 40.9897 -96.7758 15° North 164 189 5,000 -48 Descending Minneapolis Center
Fri 07:34:33 PM 41.0356 -96.7678 North 165 190 5,000 -46 Level Minneapolis Center
Fri 07:35:42 PM 41.0833 -96.7539 12° North 162 186 4,900  Descending Minneapolis Center
Fri 07:36:25 PM 41.1164 -96.7478 North 161 185 5,000 58 Climbing Minneapolis Center
Fri 07:37:26 PM 41.1569 -96.7269 21° North 164 189 5,000  Level Minneapolis Center
Fri 07:38:38 PM 41.2119 -96.7047 17° North 163 188 5,000  Level Minneapolis Center
Fri 07:39:43 PM 41.2619 -96.6842 17° North 164 189 5,000  Level Minneapolis Center
Fri 07:40:45 PM 41.3042 -96.6650 19° North 163 188 5,000 48 Level Minneapolis Center
Fri 07:41:47 PM 41.3567 -96.6408 19° North 164 189 5,100  Climbing Minneapolis Center
Fri 07:42:50 PM 41.4003 -96.6228 17° North 164 189 5,000 -48 Descending Minneapolis Center
Fri 07:43:52 PM 41.4453 -96.6053 16° North 165 190 5,000 -48 Level Minneapolis Center
Fri 07:44:54 PM 41.4906 -96.5908 13° North 166 191 4,900  Descending Minneapolis Center
Fri 07:45:43 PM 41.5186 -96.5867 North 157 181 5,000 104 Climbing Minneapolis Center
Fri 07:46:49 PM 41.5681 -96.5758 North 155 178 5,100 44 Climbing Minneapolis Center
Fri 07:48:00 PM 41.6194 -96.5517 19° North 159 183 5,100 -45 Level Minneapolis Center
Fri 07:49:02 PM 41.6717 -96.5258 20° North 162 186 5,000 97 Descending Minneapolis Center
Fri 07:50:04 PM 41.7139 -96.5058 19° North 163 188 5,300 339 Climbing Minneapolis Center
Fri 07:51:06 PM 41.7553 -96.4944 12° North 158 182 5,700 387 Climbing Minneapolis Center
Fri 07:52:08 PM 41.7925 -96.4811 15° North 149 171 6,100 387 Climbing Minneapolis Center
Fri 07:53:10 PM 41.8306 -96.4692 13° North 144 166 6,500 339 Climbing Minneapolis Center
Fri 07:54:12 PM 41.8675 -96.4564 14° North 140 161 6,800 290 Climbing Minneapolis Center
Fri 07:55:14 PM 41.9050 -96.4431 15° North 139 160 7,100 194 Climbing Minneapolis Center
Fri 07:56:16 PM 41.9517 -96.4267 15° North 141 162 7,200  Climbing Minneapolis Center
Fri 07:57:18 PM 41.9925 -96.4086 18° North 146 168 7,100 -97 Descending Minneapolis Center
Fri 07:58:20 PM 42.0356 -96.3853 22° Northeast 155 178 7,000 -48 Descending Minneapolis Center
Fri 07:59:22 PM 42.0769 -96.3642 21° North 158 182 7,000  Level Minneapolis Center
Fri 08:00:24 PM 42.1194 -96.3522 12° North 158 182 7,000  Level Minneapolis Center
Fri 08:01:26 PM 42.1611 -96.3406 12° North 156 180 7,000 48 Level Minneapolis Center
Fri 08:02:28 PM 42.2108 -96.3244 13° North 154 177 7,100 48 Climbing Minneapolis Center
Fri 08:03:30 PM 42.2519 -96.3069 17° North 154 177 7,100  Level Minneapolis Center
Fri 08:04:32 PM 42.2931 -96.2878 19° North 154 177 7,100 -48 Level Minneapolis Center
Fri 08:05:34 PM 42.3353 -96.2683 19° North 157 181 7,000 -97 Descending Minneapolis Center
Fri 08:06:36 PM 42.3781 -96.2428 24° Northeast 161 185 6,900 -48 Descending Minneapolis Center
Fri 08:07:38 PM 42.4200 -96.2272 15° North 161 185 6,900 49 Level Minneapolis Center
Fri 08:08:39 PM 42.4633 -96.2142 13° North 159 183 7,000 49 Climbing Minneapolis Center
Fri 08:09:41 PM 42.5139 -96.1964 15° North 158 182 7,000  Level Minneapolis Center
Fri 08:10:43 PM 42.5561 -96.1858 10° North 156 180 7,000 48 Level Minneapolis Center
Fri 08:11:45 PM 42.5978 -96.1692 16° North 155 178 7,100 48 Climbing Minneapolis Center
Fri 08:12:47 PM 42.6400 -96.1531 16° North 157 181 7,100  Level Minneapolis Center
Fri 08:13:49 PM 42.6833 -96.1408 12° North 159 183 7,100 -48 Level Minneapolis Center
Fri 08:14:51 PM 42.7322 -96.1131 23° Northeast 160 184 7,000 -48 Descending Minneapolis Center
Fri 08:15:53 PM 42.7750 -96.0867 24° Northeast 166 191 7,000 -48 Level Minneapolis Center
Fri 08:16:55 PM 42.8194 -96.0697 16° North 167 192 6,900 -48 Descending Minneapolis Center
Fri 08:17:57 PM 42.8631 -96.0517 17° North 166 191 6,900 48 Level Minneapolis Center
Fri 08:18:59 PM 42.9050 -96.0361 15° North 160 184 7,000 48 Climbing Minneapolis Center
Fri 08:20:01 PM 42.9478 -96.0225 13° North 158 182 7,000  Level Minneapolis Center
Fri 08:21:03 PM 42.9978 -96.0044 15° North 155 178 7,000  Level Minneapolis Center
Fri 08:22:05 PM 43.0417 -95.9872 16° North 161 185 7,000  Level Minneapolis Center
Fri 08:23:07 PM 43.0853 -95.9703 16° North 162 186 7,000 48 Level Minneapolis Center
Fri 08:24:09 PM 43.1281 -95.9531 16° North 162 186 7,100  Climbing Minneapolis Center
Fri 08:25:11 PM 43.1717 -95.9375 15° North 161 185 7,000 -48 Descending Minneapolis Center
Fri 08:26:13 PM 43.2147 -95.9192 17° North 162 186 7,000  Level Minneapolis Center
Fri 08:27:15 PM 43.2672 -95.8981 16° North 163 188 7,000  Level Minneapolis Center
Fri 08:28:30 PM 43.3197 -95.8758 17° North 164 189 7,000  Level Minneapolis Center
Fri 08:29:32 PM 43.3628 -95.8597 15° North 163 188 7,000  Level Minneapolis Center
Fri 08:30:34 PM 43.4050 -95.8428 16° North 161 185 7,000  Level Minneapolis Center
Fri 08:31:36 PM 43.4492 -95.8242 17° North 163 188 7,000  Level Minneapolis Center
Fri 08:32:38 PM 43.5014 -95.8022 17° North 163 188 7,000  Level Minneapolis Center
Fri 08:33:40 PM 43.5447 -95.7842 17° North 164 189 7,000  Level Minneapolis Center
Fri 08:34:42 PM 43.5878 -95.7678 15° North 163 188 7,000 48 Level Minneapolis Center
Fri 08:35:44 PM 43.6297 -95.7506 17° North 161 185 7,100 48 Climbing Minneapolis Center
Fri 08:36:46 PM 43.6736 -95.7333 16° North 161 185 7,100 -48 Level Minneapolis Center
Fri 08:37:49 PM 43.7172 -95.7144 17° North 163 188 7,000 -48 Descending Minneapolis Center
Fri 08:38:51 PM 43.7697 -95.6922 17° North 164 189 7,000 48 Level Minneapolis Center
Fri 08:39:53 PM 43.8128 -95.6747 16° North 164 189 7,100  Climbing Minneapolis Center
Fri 08:40:55 PM 43.8561 -95.6572 16° North 163 188 7,000 -48 Descending Minneapolis Center
Fri 08:41:57 PM 43.8992 -95.6394 17° North 163 188 7,000  Level Minneapolis Center
Fri 08:42:59 PM 43.9419 -95.6217 17° North 162 186 7,000 48 Level Minneapolis Center
Fri 08:44:01 PM 43.9936 -95.6019 15° North 162 186 7,100 48 Climbing Minneapolis Center
Fri 08:45:03 PM 44.0361 -95.5844 16° North 161 185 7,100  Level Minneapolis Center
Fri 08:46:06 PM 44.0794 -95.5667 16° North 161 185 7,100 48 Level Minneapolis Center
Fri 08:47:08 PM 44.1222 -95.5483 17° North 162 186 7,200  Climbing Minneapolis Center
Fri 08:48:10 PM 44.1656 -95.5294 17° North 163 188 7,100 -97 Descending Minneapolis Center
Fri 08:49:12 PM 44.2100 -95.5072 20° North 168 193 7,000 -48 Descending Minneapolis Center
Fri 08:50:14 PM 44.2628 -95.4828 18° North 168 193 7,000  Level Minneapolis Center
Fri 08:51:16 PM 44.3069 -95.4669 14° North 165 190 7,000 48 Level Minneapolis Center
Fri 08:52:18 PM 44.3508 -95.4489 16° North 165 190 7,100 48 Climbing Minneapolis Center
Fri 08:53:20 PM 44.3939 -95.4300 17° North 164 189 7,100  Level Minneapolis Center
Fri 08:54:22 PM 44.4381 -95.4125 16° North 165 190 7,100  Level Minneapolis Center
Fri 08:55:24 PM 44.4914 -95.3892 17° North 167 192 7,100 -48 Level Minneapolis Center
Fri 08:56:26 PM 44.5356 -95.3697 17° North 167 192 7,000 -242 Descending Minneapolis Center
Fri 08:57:28 PM 44.5811 -95.3506 17° North 169 194 6,600 -532 Descending Minneapolis Center
Fri 08:58:30 PM 44.6294 -95.3286 18° North 177 204 5,900 -629 Descending Minneapolis Center
Fri 08:59:32 PM 44.6794 -95.3069 17° North 185 213 5,300 -532 Descending Minneapolis Center
Fri 09:00:34 PM 44.7289 -95.2961 North 182 209 4,800 -532 Descending Minneapolis Center
Fri 09:01:36 PM 44.7864 -95.2681 19° North 183 211 4,200 -387 Descending Minneapolis Center
Fri 09:02:38 PM 44.8317 -95.2444 20° North 180 207 4,000 -194 Descending Minneapolis Center

Login

Don't have an account? Register now (free) for customized features, flight alerts, and more!